Time;durP1;ratioP1;P1;durP2;ratioP2;P2;SDS_P1;SDS_P2;PMS_P1;PMS_P2;Temp;Humidity;BMP_temperature;BMP_pressure;BME280_temperature;BME280_humidity;BME280_pressure;Samples;Min_cycle;Max_cycle;Signal;HPM_P1;HPM_P2
2022/09/24 00:01:15;;;;;;;3.70;3.10;;;;;;;13.70;97.23;95649.16;4961696;28;20022;-59
2022/09/24 00:03:44;;;;;;;6.00;4.07;;;;;;;13.72;97.78;95649.84;4948568;28;20019;-59
2022/09/24 00:06:13;;;;;;;5.13;4.15;;;;;;;13.88;96.78;95649.03;4959323;28;20058;-59
2022/09/24 00:08:39;;;;;;;4.35;3.85;;;;;;;13.81;97.56;95650.66;4961365;28;20034;-59
2022/09/24 00:11:06;;;;;;;5.05;4.35;;;;;;;13.70;98.96;95649.16;4969118;28;20043;-60
2022/09/24 00:13:34;;;;;;;7.30;4.32;;;;;;;13.60;99.76;95654.63;4961705;28;20515;-64
2022/09/24 00:16:09;;;;;;;5.55;4.20;;;;;;;13.48;100.00;95653.25;4963080;28;20055;-61
2022/09/24 00:18:35;;;;;;;4.57;4.18;;;;;;;13.48;100.00;95653.25;4967090;28;20023;-63
2022/09/24 00:21:10;;;;;;;11.05;4.05;;;;;;;13.38;100.00;95643.63;4963089;28;20030;-64
2022/09/24 00:23:35;;;;;;;;;;;;;;;13.33;100.00;95644.09;4962828;28;20035;-63
2022/09/24 00:28:48;;;;;;;9.70;4.68;;;;;;;13.28;100.00;95648.19;4965492;28;20277;-64
2022/09/24 00:31:14;;;;;;;8.43;4.50;;;;;;;13.28;100.00;95642.91;4966249;28;20488;-59
2022/09/24 00:33:39;;;;;;;9.15;5.07;;;;;;;13.24;100.00;95636.28;4966918;28;20106;-59
2022/09/24 00:36:05;;;;;;;5.45;4.22;;;;;;;13.24;100.00;95633.63;4960500;28;20469;-60
2022/09/24 00:38:31;;;;;;;7.25;4.45;;;;;;;13.24;100.00;95636.28;4961454;28;20027;-59
2022/09/24 00:40:58;;;;;;;5.60;5.07;;;;;;;13.23;100.00;95634.63;4962577;28;20027;-59
2022/09/24 00:43:36;;;;;;;5.43;4.70;;;;;;;13.23;100.00;95642.56;4965457;28;20527;-60
2022/09/24 00:46:26;;;;;;;5.70;4.32;;;;;;;13.25;100.00;95640.59;4965434;28;20038;-59
2022/09/24 00:48:57;;;;;;;6.70;4.45;;;;;;;13.27;100.00;95641.25;4958673;28;20441;-63
2022/09/24 00:51:25;;;;;;;4.93;4.43;;;;;;;13.30;100.00;95643.56;4960135;28;20030;-58
2022/09/24 00:53:55;;;;;;;6.13;5.10;;;;;;;13.38;100.00;95648.91;4965647;28;20055;-64
2022/09/24 00:56:21;;;;;;;6.53;5.20;;;;;;;13.35;100.00;95653.66;4962002;28;20106;-63
2022/09/24 00:58:53;;;;;;;4.93;4.47;;;;;;;13.40;100.00;95646.91;4963314;28;20177;-64
2022/09/24 01:01:21;;;;;;;4.70;4.30;;;;;;;13.41;100.00;95645.09;4967713;28;20084;-64
2022/09/24 01:03:48;;;;;;;5.97;5.00;;;;;;;13.42;100.00;95641.44;4957073;28;20022;-64
2022/09/24 01:06:14;;;;;;;5.45;4.47;;;;;;;13.37;100.00;95641.94;4964335;28;20054;-64
2022/09/24 01:08:39;;;;;;;5.30;4.40;;;;;;;13.70;100.00;95644.69;4961431;28;20967;-72
2022/09/24 01:11:42;;;;;;;4.50;4.20;;;;;;;13.51;100.00;95644.97;4963837;28;20039;-64
2022/09/24 01:14:13;;;;;;;5.68;5.00;;;;;;;13.36;100.00;95634.97;4961638;28;20105;-59
2022/09/24 01:16:52;;;;;;;6.15;4.97;;;;;;;13.27;100.00;95639.44;4966317;28;20081;-60
2022/09/24 01:19:55;;;;;;;5.47;4.82;;;;;;;13.18;100.00;95635.94;4963191;28;20038;-59
2022/09/24 01:22:47;;;;;;;6.30;4.55;;;;;;;13.19;100.00;95634.09;4964549;28;20027;-59
2022/09/24 01:26:17;;;;;;;6.07;5.25;;;;;;;13.23;100.00;95626.69;4963403;28;20034;-60
2022/09/24 01:29:14;;;;;;;5.22;4.70;;;;;;;13.24;100.00;95634.44;4882406;29;20048;-61
2022/09/24 01:31:49;;;;;;;5.80;5.30;;;;;;;13.24;100.00;95631.00;4900056;29;20032;-61
2022/09/24 01:34:18;;;;;;;;;;;;;;;13.21;100.00;95632.13;4961051;28;20043;-61
2022/09/24 01:36:45;;;;;;;7.50;5.25;;;;;;;13.20;100.00;95640.25;4962933;28;19910;-61
2022/09/24 01:39:13;;;;;;;5.65;5.15;;;;;;;13.22;100.00;95638.25;4964680;28;20397;-61
2022/09/24 01:41:41;;;;;;;9.60;5.20;;;;;;;13.22;100.00;95627.69;4963535;28;20026;-61
2022/09/24 01:44:10;;;;;;;5.68;5.15;;;;;;;13.20;100.00;95629.66;4963762;28;20031;-61
2022/09/24 01:46:38;;;;;;;5.10;4.63;;;;;;;13.19;100.00;95628.81;4966658;28;20023;-72
2022/09/24 01:49:06;;;;;;;5.05;4.55;;;;;;;13.17;100.00;95628.16;4961809;28;20047;-60
2022/09/24 01:51:57;;;;;;;9.15;5.10;;;;;;;13.14;100.00;95629.28;4965175;28;20031;-59
2022/09/24 01:54:31;;;;;;;5.43;4.70;;;;;;;13.13;100.00;95622.34;4952671;28;20034;-58
2022/09/24 01:57:21;;;;;;;4.72;4.22;;;;;;;13.12;100.00;95623.34;4958108;28;20019;-58
2022/09/24 01:59:46;;;;;;;9.07;4.90;;;;;;;13.07;100.00;95620.34;4956177;28;20035;-59
2022/09/24 02:02:21;;;;;;;4.90;4.50;;;;;;;13.03;100.00;95624.31;4960588;28;20035;-59
2022/09/24 02:05:01;;;;;;;4.97;4.60;;;;;;;13.04;100.00;95632.09;4962977;28;20022;-58
2022/09/24 02:07:34;;;;;;;6.32;5.15;;;;;;;13.12;100.00;95627.81;4962457;28;20061;-59
2022/09/24 02:10:00;;;;;;;5.80;5.13;;;;;;;13.09;100.00;95628.13;4963420;28;20039;-59
2022/09/24 02:12:36;;;;;;;6.95;5.53;;;;;;;13.10;100.00;95621.88;4963835;28;20098;-60
2022/09/24 02:15:17;;;;;;;6.03;5.25;;;;;;;13.11;100.00;95621.69;4958910;28;20039;-59
2022/09/24 02:17:47;;;;;;;5.85;5.22;;;;;;;13.11;100.00;95618.22;4962839;28;20082;-59
2022/09/24 02:20:18;;;;;;;8.48;4.43;;;;;;;13.40;100.00;95624.94;4961894;28;20027;-59
2022/09/24 02:22:45;;;;;;;5.28;4.75;;;;;;;13.22;100.00;95617.94;4962900;28;20078;-59
2022/09/24 02:25:16;;;;;;;6.00;5.10;;;;;;;13.07;100.00;95614.25;4964845;28;20034;-59
2022/09/24 02:27:41;;;;;;;6.30;4.85;;;;;;;13.24;100.00;95609.84;4955075;28;20019;-63
2022/09/24 02:30:07;;;;;;;7.13;5.30;;;;;;;13.04;100.00;95599.53;4958524;28;20492;-59
2022/09/24 02:32:35;;;;;;;7.07;4.85;;;;;;;12.92;100.00;95591.06;4961057;28;20610;-59
2022/09/24 02:35:06;;;;;;;10.40;5.25;;;;;;;12.88;100.00;95595.03;4961599;28;20062;-59
2022/09/24 02:37:36;;;;;;;5.80;5.30;;;;;;;12.88;100.00;95589.75;4965870;28;20023;-59
2022/09/24 02:40:05;;;;;;;6.05;5.50;;;;;;;12.86;100.00;95581.16;4971765;28;20033;-60
2022/09/24 02:42:30;;;;;;;5.57;5.07;;;;;;;12.82;100.00;95579.78;4967691;28;20054;-59
2022/09/24 02:44:58;;;;;;;8.85;6.10;;;;;;;12.84;100.00;95573.38;4966687;28;20062;-61
2022/09/24 02:47:24;;;;;;;6.45;5.93;;;;;;;12.84;100.00;95561.97;4970394;28;20023;-59
2022/09/24 02:49:49;;;;;;;5.85;5.40;;;;;;;12.85;100.00;95567.09;4966993;28;20130;-59
2022/09/24 02:52:15;;;;;;;9.05;7.65;;;;;;;12.84;100.00;95562.78;4968486;28;20485;-58
2022/09/24 02:54:41;;;;;;;5.70;5.20;;;;;;;12.80;100.00;95558.81;4968161;28;20044;-59
2022/09/24 02:57:06;;;;;;;5.30;4.90;;;;;;;12.81;100.00;95560.47;4970139;28;20019;-59
2022/09/24 02:59:32;;;;;;;5.38;4.88;;;;;;;12.79;100.00;95567.75;4972311;28;20023;-58
2022/09/24 03:01:57;;;;;;;6.10;5.43;;;;;;;12.78;100.00;95568.72;4966613;28;20508;-58
2022/09/24 03:04:24;;;;;;;6.15;5.20;;;;;;;12.83;100.00;95571.72;4962738;28;20043;-58
2022/09/24 03:06:49;;;;;;;6.07;5.55;;;;;;;13.01;100.00;95584.00;4965150;28;20115;-62
2022/09/24 03:09:14;;;;;;;7.95;6.43;;;;;;;13.11;100.00;95578.59;4966785;28;20031;-61
2022/09/24 03:11:40;;;;;;;6.32;5.75;;;;;;;12.95;100.00;95582.00;4970893;28;20023;-61
2022/09/24 03:14:05;;;;;;;7.43;6.28;;;;;;;12.86;100.00;95584.59;4967309;28;20110;-61
2022/09/24 03:16:32;;;;;;;7.18;6.07;;;;;;;12.84;100.00;95583.13;4967095;28;20392;-62
2022/09/24 03:18:57;;;;;;;6.70;5.97;;;;;;;12.80;100.00;95579.97;4965589;28;20050;-61
2022/09/24 03:21:23;;;;;;;7.15;6.55;;;;;;;12.82;100.00;95575.34;4969501;28;20531;-61
2022/09/24 03:23:48;;;;;;;9.35;7.80;;;;;;;12.84;100.00;95573.38;4963493;28;20551;-59
2022/09/24 03:26:14;;;;;;;6.85;6.22;;;;;;;12.77;100.00;95574.16;4968684;28;20042;-63
2022/09/24 03:28:40;;;;;;;7.55;6.85;;;;;;;12.74;100.00;95570.03;4966404;28;20416;-64
2022/09/24 03:31:06;;;;;;;7.30;6.80;;;;;;;12.77;100.00;95577.63;4963778;28;20026;-64
2022/09/24 03:33:36;;;;;;;8.18;7.47;;;;;;;12.79;100.00;95580.09;4964197;28;20515;-63
2022/09/24 03:36:07;;;;;;;8.80;7.90;;;;;;;12.72;100.00;95572.81;4965722;28;20019;-63
2022/09/24 03:38:33;;;;;;;10.30;7.57;;;;;;;12.68;100.00;95574.13;4971394;28;20433;-64
2022/09/24 03:40:59;;;;;;;8.88;8.10;;;;;;;12.68;100.00;95570.66;4959433;28;20026;-64
2022/09/24 03:43:25;;;;;;;8.52;7.72;;;;;;;12.68;100.00;95573.28;4957903;28;20023;-64
2022/09/24 03:45:51;;;;;;;8.18;7.57;;;;;;;12.67;100.00;95569.84;4957445;28;20030;-62
2022/09/24 03:48:18;;;;;;;8.20;7.60;;;;;;;12.70;100.00;95573.94;4963225;28;20058;-62
2022/09/24 03:50:44;;;;;;;10.13;8.27;;;;;;;12.71;100.00;95567.69;4968735;28;20051;-62
2022/09/24 03:53:11;;;;;;;9.23;8.35;;;;;;;12.69;100.00;95569.66;4963543;28;20022;-61
2022/09/24 03:55:45;;;;;;;12.18;8.68;;;;;;;12.71;100.00;95565.03;4970501;28;20068;-62
2022/09/24 03:58:11;;;;;;;9.48;8.65;;;;;;;12.72;100.00;95564.09;4967743;28;20492;-62
2022/09/24 04:00:37;;;;;;;9.55;8.73;;;;;;;12.70;100.00;95556.31;4967693;28;20086;-62
2022/09/24 04:03:03;;;;;;;9.13;7.80;;;;;;;12.72;100.00;95553.50;4968120;28;20060;-60
2022/09/24 04:05:29;;;;;;;9.02;8.32;;;;;;;12.68;100.00;95554.78;4960791;28;20030;-72
2022/09/24 04:07:55;;;;;;;8.57;7.78;;;;;;;12.66;100.00;95544.41;4961783;28;20039;-72
2022/09/24 04:10:21;;;;;;;11.63;7.90;;;;;;;12.68;100.00;95550.34;4962792;28;20031;-72
2022/09/24 04:12:48;;;;;;;8.25;7.45;;;;;;;12.68;100.00;95550.34;4965305;28;20501;-72
2022/09/24 04:15:17;;;;;;;9.50;7.70;;;;;;;12.69;100.00;95551.16;4970021;28;20086;-72
2022/09/24 04:18:09;;;;;;;9.75;8.00;;;;;;;12.71;100.00;95546.56;4967245;28;20127;-73
2022/09/24 04:20:35;;;;;;;9.07;8.18;;;;;;;12.70;100.00;95544.91;4963638;28;20030;-71
2022/09/24 04:23:01;;;;;;;9.48;7.93;;;;;;;12.74;100.00;95543.63;4967736;28;20045;-62
2022/09/24 04:25:31;;;;;;;11.70;9.23;;;;;;;12.69;100.00;95544.09;4968025;28;20030;-59
2022/09/24 04:28:03;;;;;;;9.75;8.95;;;;;;;12.65;100.00;95541.91;4964529;28;20154;-59
2022/09/24 04:30:30;;;;;;;9.40;8.70;;;;;;;12.68;100.00;95531.03;4961260;28;20191;-59
2022/09/24 04:32:58;;;;;;;9.95;9.10;;;;;;;12.72;100.00;95540.31;4968345;28;20030;-59
2022/09/24 04:35:24;;;;;;;9.30;8.55;;;;;;;12.72;100.00;95537.66;4965578;28;20027;-59
2022/09/24 04:37:49;;;;;;;9.80;8.63;;;;;;;12.72;100.00;95540.31;4966792;28;20018;-59
2022/09/24 04:40:15;;;;;;;8.68;7.97;;;;;;;12.74;100.00;95535.69;4968399;28;20023;-65
2022/09/24 04:42:43;;;;;;;9.60;8.80;;;;;;;12.77;100.00;95539.81;4965461;28;20081;-62
2022/09/24 04:45:10;;;;;;;10.40;9.35;;;;;;;12.76;100.00;95541.66;4964677;28;20029;-72
2022/09/24 04:47:39;;;;;;;9.52;8.57;;;;;;;13.15;100.00;95540.28;4968172;28;20504;-71
2022/09/24 04:50:06;;;;;;;10.07;9.18;;;;;;;13.20;100.00;95545.06;4964053;28;20091;-72
2022/09/24 04:52:32;;;;;;;9.40;8.50;;;;;;;12.90;100.00;95554.22;4967684;28;20057;-72
2022/09/24 04:54:59;;;;;;;10.52;9.63;;;;;;;12.74;100.00;95551.53;4965180;28;20031;-71
2022/09/24 04:57:25;;;;;;;13.32;12.13;;;;;;;12.67;100.00;95550.50;4953052;28;20412;-73
2022/09/24 04:59:51;;;;;;;13.23;12.02;;;;;;;12.64;100.00;95556.94;4969744;28;20034;-73
2022/09/24 05:02:17;;;;;;;11.45;10.50;;;;;;;12.65;100.00;95552.47;4966054;28;20034;-59
2022/09/24 05:04:42;;;;;;;10.70;9.73;;;;;;;12.62;100.00;95543.06;4960426;28;20037;-65
2022/09/24 05:07:08;;;;;;;11.63;10.70;;;;;;;12.62;100.00;95548.34;4964692;28;20023;-64
2022/09/24 05:09:34;;;;;;;10.35;9.50;;;;;;;12.64;100.00;95542.91;4966640;28;20023;-65
2022/09/24 05:12:00;;;;;;;11.07;10.10;;;;;;;12.65;100.00;95548.03;4969176;28;20034;-64
2022/09/24 05:14:25;;;;;;;10.88;9.98;;;;;;;12.66;100.00;95556.78;4964210;28;20616;-65
2022/09/24 05:16:51;;;;;;;10.77;9.98;;;;;;;12.66;100.00;95554.13;4967734;28;20023;-64
2022/09/24 05:19:17;;;;;;;10.80;9.80;;;;;;;12.63;100.00;95557.94;4965917;28;20531;-63
2022/09/24 05:21:42;;;;;;;10.13;9.30;;;;;;;12.63;100.00;95555.28;4963905;28;20054;-60
2022/09/24 05:24:08;;;;;;;10.70;9.60;;;;;;;12.67;100.00;95547.84;4966214;28;20042;-64
2022/09/24 05:29:18;;;;;;;8.75;7.85;;;;;;;12.69;100.00;95551.16;4970275;28;20029;-65
2022/09/24 05:31:43;;;;;;;6.82;6.22;;;;;;;12.68;100.00;95562.72;4967111;28;20035;-65
2022/09/24 05:34:08;;;;;;;6.00;5.53;;;;;;;12.70;100.00;95561.59;4964067;28;20110;-64
2022/09/24 05:36:34;;;;;;;6.03;5.55;;;;;;;12.68;100.00;95554.78;4967608;28;20026;-63
2022/09/24 05:38:59;;;;;;;5.43;4.93;;;;;;;12.64;100.00;95554.31;4967585;28;20046;-64
2022/09/24 05:41:27;;;;;;;5.38;4.63;;;;;;;12.64;100.00;95556.09;4967102;28;20488;-59
2022/09/24 05:43:54;;;;;;;5.25;4.82;;;;;;;12.65;100.00;95557.75;4964694;28;20397;-65
2022/09/24 05:46:19;;;;;;;6.75;5.00;;;;;;;12.63;100.00;95565.00;4964095;28;20030;-64
2022/09/24 05:48:45;;;;;;;5.28;4.78;;;;;;;12.66;100.00;95559.41;4968659;28;20072;-65
2022/09/24 05:51:10;;;;;;;5.07;4.68;;;;;;;12.66;100.00;95569.97;4968577;28;20027;-64
2022/09/24 05:53:35;;;;;;;5.30;4.80;;;;;;;12.66;100.00;95554.13;4964634;28;20456;-65
2022/09/24 05:56:01;;;;;;;10.80;5.55;;;;;;;12.67;100.00;95558.44;4967888;28;20117;-64
2022/09/24 05:58:26;;;;;;;8.75;4.78;;;;;;;12.64;100.00;95564.88;4970921;28;20054;-62
2022/09/24 06:00:52;;;;;;;5.82;5.10;;;;;;;12.64;100.00;95561.38;4952492;28;20074;-60
2022/09/24 06:03:18;;;;;;;5.18;4.72;;;;;;;12.65;100.00;95560.41;4965648;28;20026;-60
2022/09/24 06:05:45;;;;;;;5.72;5.22;;;;;;;12.63;100.00;95565.00;4966833;28;20028;-60
2022/09/24 06:08:10;;;;;;;5.82;5.07;;;;;;;12.65;100.00;95560.41;4961457;28;20038;-60
2022/09/24 06:10:36;;;;;;;5.70;5.07;;;;;;;12.67;100.00;95555.78;4965709;28;20527;-59
2022/09/24 06:13:02;;;;;;;6.72;5.10;;;;;;;12.67;100.00;95559.25;4967299;28;20500;-60
2022/09/24 06:15:28;;;;;;;6.05;4.90;;;;;;;12.66;100.00;95562.91;4959586;28;20023;-60
2022/09/24 06:17:54;;;;;;;5.78;5.38;;;;;;;12.70;100.00;95558.09;4965873;28;20105;-59
2022/09/24 06:20:20;;;;;;;7.82;5.55;;;;;;;12.68;100.00;95568.00;4971163;28;20014;-65
2022/09/24 06:22:47;;;;;;;5.82;5.30;;;;;;;12.66;100.00;95562.91;4969027;28;20534;-65
2022/09/24 06:25:12;;;;;;;4.78;4.35;;;;;;;12.68;100.00;95562.72;4970942;28;20060;-64
2022/09/24 06:27:37;;;;;;;5.13;4.72;;;;;;;12.70;100.00;95563.38;4966440;28;20030;-65
2022/09/24 06:30:03;;;;;;;4.88;4.47;;;;;;;12.71;100.00;95559.75;4968179;28;20055;-65
2022/09/24 06:32:29;;;;;;;5.00;4.57;;;;;;;12.68;100.00;95557.44;4969717;28;20507;-65
2022/09/24 06:34:54;;;;;;;4.85;4.45;;;;;;;12.68;100.00;95555.63;4968172;28;20033;-65
2022/09/24 06:37:20;;;;;;;5.40;4.97;;;;;;;12.73;100.00;95552.53;4967514;28;20027;-59
2022/09/24 06:39:45;;;;;;;4.82;4.43;;;;;;;12.74;100.00;95559.47;4973126;28;20528;-62
2022/09/24 06:42:11;;;;;;;6.30;4.60;;;;;;;12.77;100.00;95556.50;4964125;28;20054;-62
2022/09/24 06:44:36;;;;;;;4.72;4.28;;;;;;;12.83;100.00;95552.41;4967318;28;20054;-62
2022/09/24 06:47:02;;;;;;;4.70;4.30;;;;;;;12.84;100.00;95559.34;4949807;28;20050;-62
2022/09/24 06:49:28;;;;;;;6.68;4.00;;;;;;;12.84;100.00;95561.97;4963450;28;20456;-62
2022/09/24 06:51:53;;;;;;;4.75;4.07;;;;;;;12.84;100.00;95556.69;4962136;28;20170;-62
2022/09/24 06:54:19;;;;;;;4.72;4.32;;;;;;;12.83;100.00;95560.34;4964047;28;20027;-63
2022/09/24 06:56:45;;;;;;;4.30;3.90;;;;;;;12.85;100.00;95555.72;4959114;28;20081;-62
2022/09/24 06:59:11;;;;;;;4.05;3.42;;;;;;;12.89;100.00;95559.69;4964832;28;20037;-67
2022/09/24 07:01:36;;;;;;;3.38;3.13;;;;;;;12.92;100.00;95558.53;4966025;28;20165;-65
2022/09/24 07:04:02;;;;;;;6.30;3.85;;;;;;;12.90;100.00;95567.44;4966396;28;20026;-67
2022/09/24 07:07:28;;;;;;;3.20;2.95;;;;;;;12.90;100.00;95563.97;4968317;28;20031;-67
2022/09/24 07:09:12;;;;;;;4.72;3.47;;;;;;;12.90;100.00;95570.06;4965194;28;20045;-67
2022/09/24 07:11:38;;;;;;;4.22;3.85;;;;;;;12.92;100.00;95569.09;4969224;28;20411;-68
2022/09/24 07:14:03;;;;;;;4.43;4.03;;;;;;;12.95;100.00;95568.78;4957619;28;20653;-67
2022/09/24 07:16:29;;;;;;;5.10;4.60;;;;;;;12.95;100.00;95568.78;4966117;28;20031;-60
2022/09/24 07:18:54;;;;;;;5.45;5.05;;;;;;;12.92;100.00;95564.66;4969727;28;20496;-65
2022/09/24 07:21:20;;;;;;;4.68;4.32;;;;;;;12.93;100.00;95565.47;4966949;28;20034;-66
2022/09/24 07:23:45;;;;;;;6.47;4.85;;;;;;;12.96;100.00;95555.41;4960312;28;20126;-66
2022/09/24 07:26:11;;;;;;;5.03;4.68;;;;;;;12.98;100.00;95557.91;4969764;28;20022;-67
2022/09/24 07:28:36;;;;;;;5.55;5.10;;;;;;;12.99;100.00;95556.91;4966292;28;20451;-66
2022/09/24 07:31:01;;;;;;;5.28;4.95;;;;;;;13.03;100.00;95558.25;4960815;28;20019;-65
2022/09/24 07:33:27;;;;;;;7.15;4.38;;;;;;;13.07;100.00;95551.63;4968429;28;20030;-65
2022/09/24 07:35:52;;;;;;;5.07;4.63;;;;;;;13.07;100.00;95549.00;4970997;28;20023;-71
2022/09/24 07:38:17;;;;;;;5.32;4.50;;;;;;;13.14;100.00;95547.34;4967308;28;20133;-59
2022/09/24 07:40:43;;;;;;;6.53;5.03;;;;;;;13.12;100.00;95549.34;4968089;28;20026;-67
2022/09/24 07:43:12;;;;;;;7.50;5.20;;;;;;;13.12;100.00;95553.81;4962108;28;20038;-66
2022/09/24 07:45:38;;;;;;;5.35;5.05;;;;;;;13.11;100.00;95552.97;4970868;28;20077;-69
2022/09/24 07:48:04;;;;;;;4.82;4.53;;;;;;;13.12;100.00;95549.34;4967273;28;20035;-68
2022/09/24 07:50:39;;;;;;;5.70;5.20;;;;;;;13.18;100.00;95551.34;4966511;28;20039;-69
2022/09/24 07:53:05;;;;;;;5.57;5.18;;;;;;;13.12;100.00;95554.63;4967967;28;20109;-69
2022/09/24 07:55:31;;;;;;;5.50;5.10;;;;;;;13.12;100.00;95554.63;4966136;28;20496;-65
2022/09/24 07:57:56;;;;;;;6.60;5.47;;;;;;;13.11;100.00;95555.59;4968420;28;20031;-70
2022/09/24 08:00:23;;;;;;;6.35;5.85;;;;;;;13.12;100.00;95553.81;4968011;28;20069;-73
2022/09/24 08:02:50;;;;;;;6.22;5.72;;;;;;;13.06;100.00;95560.56;4970282;28;20026;-69
2022/09/24 08:05:16;;;;;;;6.70;6.10;;;;;;;13.11;100.00;95560.91;4958516;28;20023;-71
2022/09/24 08:07:42;;;;;;;7.47;6.57;;;;;;;13.20;100.00;95566.22;4968723;28;20019;-71
2022/09/24 08:10:08;;;;;;;7.25;6.72;;;;;;;13.30;100.00;95566.91;4970005;28;20035;-71
2022/09/24 08:12:34;;;;;;;7.78;7.18;;;;;;;13.36;100.00;95571.53;4966804;28;20492;-64
2022/09/24 08:14:59;;;;;;;7.78;5.78;;;;;;;13.41;100.00;95571.88;4966894;28;20131;-65
2022/09/24 08:17:25;;;;;;;6.15;5.65;;;;;;;13.54;100.00;95573.25;4963812;28;20393;-60
2022/09/24 08:19:55;;;;;;;7.00;6.30;;;;;;;13.57;100.00;95570.28;4967757;28;20852;-61
2022/09/24 08:22:21;;;;;;;7.20;6.60;;;;;;;13.51;100.00;95570.94;4965481;28;20041;-61
2022/09/24 08:24:46;;;;;;;7.43;6.75;;;;;;;13.55;100.00;95565.16;4968545;28;20393;-60
2022/09/24 08:27:12;;;;;;;7.55;6.93;;;;;;;13.58;100.00;95566.63;4960944;28;20031;-61
2022/09/24 08:29:39;;;;;;;7.70;7.10;;;;;;;13.61;100.00;95563.69;4962071;28;20015;-61
2022/09/24 08:32:04;;;;;;;9.18;8.27;;;;;;;13.68;100.00;95559.38;4963436;28;20035;-71
2022/09/24 08:34:30;;;;;;;7.97;7.18;;;;;;;13.79;100.00;95566.16;4967721;28;20019;-66
2022/09/24 08:36:55;;;;;;;6.97;6.35;;;;;;;13.81;100.00;95565.97;4965084;28;20591;-70
2022/09/24 08:39:21;;;;;;;6.85;6.30;;;;;;;13.90;100.00;95557.88;4961532;28;20093;-71
2022/09/24 08:41:54;;;;;;;7.20;6.60;;;;;;;14.03;100.00;95559.22;4964141;28;20097;-70
2022/09/24 08:47:36;;;;;;;6.38;5.88;;;;;;;14.30;100.00;95563.31;4962420;28;20113;-70
2022/09/24 08:50:18;;;;;;;6.07;5.07;;;;;;;14.33;100.00;95567.44;4964767;28;20532;-70
2022/09/24 08:53:02;;;;;;;4.60;4.30;;;;;;;14.46;100.00;95556.31;4964889;28;20085;-70
2022/09/24 08:55:37;;;;;;;4.53;4.22;;;;;;;14.51;100.00;95564.59;4956340;28;20496;-64
2022/09/24 08:58:38;;;;;;;4.68;4.38;;;;;;;14.46;100.00;95562.44;4957762;28;20110;-64
2022/09/24 09:01:19;;;;;;;5.43;5.03;;;;;;;14.50;100.00;95567.41;4956676;28;20075;-64
2022/09/24 09:03:57;;;;;;;5.60;5.10;;;;;;;14.55;100.00;95557.97;4962484;28;20069;-64
2022/09/24 09:06:44;;;;;;;4.60;4.30;;;;;;;14.57;100.00;95563.06;4964301;28;20030;-64
2022/09/24 09:09:19;;;;;;;5.10;4.32;;;;;;;14.57;100.00;95569.22;4961767;28;20038;-64
2022/09/24 09:11:50;;;;;;;;;;;;;;;14.44;100.00;95574.19;4969002;28;20056;-65
2022/09/24 09:14:24;;;;;;;4.00;3.80;;;;;;;14.37;100.00;95574.06;4963803;28;19914;-67
2022/09/24 09:16:58;;;;;;;6.10;5.00;;;;;;;14.32;100.00;95571.06;4960047;28;20078;-67
2022/09/24 09:19:29;;;;;;;4.85;4.53;;;;;;;14.32;100.00;95577.22;4965543;28;20031;-68
2022/09/24 09:22:22;;;;;;;4.53;4.22;;;;;;;14.42;100.00;95570.91;4966368;28;20034;-68
2022/09/24 09:24:50;;;;;;;4.43;3.92;;;;;;;14.58;100.00;95573.50;4965902;28;20113;-68
2022/09/24 09:27:18;;;;;;;4.15;3.85;;;;;;;14.72;100.00;95572.00;4963170;28;20038;-67
2022/09/24 09:29:47;;;;;;;4.85;4.45;;;;;;;14.83;100.00;95572.66;4963150;28;20033;-65
2022/09/24 09:32:43;;;;;;;5.18;4.70;;;;;;;14.81;100.00;95574.63;4967315;28;20051;-64
2022/09/24 09:35:25;;;;;;;4.53;4.22;;;;;;;14.74;100.00;95579.81;4958611;28;20019;-68
2022/09/24 09:38:34;;;;;;;6.50;4.07;;;;;;;14.72;100.00;95573.84;4960320;28;20019;-67
2022/09/24 09:41:12;;;;;;;4.50;4.10;;;;;;;14.73;100.00;95572.84;4930118;28;20408;-69
2022/09/24 09:43:40;;;;;;;5.18;3.67;;;;;;;14.79;100.00;95574.81;4956520;28;20019;-68
2022/09/24 09:46:14;;;;;;;3.80;3.50;;;;;;;14.86;100.00;95567.81;4968715;28;20053;-67
2022/09/24 09:48:47;;;;;;;3.33;3.13;;;;;;;14.94;100.00;95579.41;4971529;28;20031;-67
2022/09/24 09:51:20;;;;;;;4.15;3.80;;;;;;;14.98;100.00;95567.44;4967860;28;20035;-61
2022/09/24 09:54:00;;;;;;;4.60;3.50;;;;;;;15.00;100.00;95568.91;4971561;28;20125;-61
2022/09/24 09:56:28;;;;;;;3.58;3.38;;;;;;;14.98;100.00;95570.09;4967506;28;20025;-61
2022/09/24 09:59:21;;;;;;;4.15;3.85;;;;;;;14.87;100.00;95568.66;4970670;28;20026;-62
2022/09/24 10:01:54;;;;;;;4.10;3.90;;;;;;;14.78;100.00;95570.50;4963067;28;20062;-61
2022/09/24 10:04:38;;;;;;;4.05;3.70;;;;;;;14.80;100.00;95575.63;4967410;28;20070;-61
2022/09/24 10:07:11;;;;;;;4.10;3.83;;;;;;;14.90;100.00;95574.41;4964018;28;20022;-61
2022/09/24 10:09:38;;;;;;;3.60;3.40;;;;;;;14.86;100.00;95573.13;4966086;28;20385;-68
2022/09/24 10:12:20;;;;;;;3.72;3.50;;;;;;;14.82;100.00;95574.47;4971189;28;20064;-70
2022/09/24 10:14:56;;;;;;;4.03;3.70;;;;;;;14.83;100.00;95578.75;4972003;28;20019;-63
2022/09/24 10:17:27;;;;;;;4.07;3.78;;;;;;;14.79;100.00;95563.38;4970953;28;20023;-63
2022/09/24 10:19:54;;;;;;;3.80;3.53;;;;;;;14.92;100.00;95562.81;4964511;28;20022;-63
2022/09/24 10:22:25;;;;;;;3.33;3.13;;;;;;;15.12;100.00;95550.78;4969665;28;20031;-64
2022/09/24 10:24:53;;;;;;;3.65;3.45;;;;;;;15.23;100.00;95548.75;4973414;28;20070;-63
2022/09/24 10:27:27;;;;;;;3.90;3.60;;;;;;;15.47;100.00;95547.78;4952749;28;20574;-63
2022/09/24 10:32:40;;;;;;;3.30;3.10;;;;;;;15.71;100.00;95548.63;4973432;28;20467;-69
2022/09/24 10:35:25;;;;;;;4.00;3.70;;;;;;;15.69;100.00;95542.63;4958644;28;20119;-69
2022/09/24 10:37:53;;;;;;;4.03;3.60;;;;;;;15.65;100.00;95544.84;4969447;28;20098;-69
2022/09/24 10:40:29;;;;;;;5.35;3.35;;;;;;;15.58;100.00;95536.75;4966141;28;20063;-69
2022/09/24 10:43:00;;;;;;;3.90;3.60;;;;;;;15.56;100.00;95532.63;4972571;28;20393;-69
2022/09/24 10:45:39;;;;;;;3.22;3.03;;;;;;;15.54;100.00;95537.28;4968635;28;20176;-69
2022/09/24 10:48:31;;;;;;;3.83;3.55;;;;;;;15.56;100.00;95530.81;4969210;28;20031;-69
2022/09/24 10:51:10;;;;;;;4.25;3.95;;;;;;;15.58;100.00;95530.63;4959073;28;20494;-72
2022/09/24 10:54:15;;;;;;;6.97;3.63;;;;;;;15.51;100.00;95524.38;4968880;28;20057;-60
2022/09/24 10:56:43;;;;;;;3.25;3.05;;;;;;;15.60;100.00;95515.38;4966305;28;20109;-60
2022/09/24 10:59:34;;;;;;;3.53;3.30;;;;;;;15.81;100.00;95516.53;4965977;28;20037;-60
2022/09/24 11:02:47;;;;;;;3.00;2.80;;;;;;;15.99;98.64;95506.41;4962841;28;20038;-61
2022/09/24 11:05:23;;;;;;;3.15;2.95;;;;;;;16.16;99.31;95520.38;4956396;28;20049;-61
2022/09/24 11:07:53;;;;;;;5.05;3.13;;;;;;;16.23;98.11;95509.84;4949472;28;20420;-66
2022/09/24 11:10:50;;;;;;;2.63;2.50;;;;;;;16.25;96.11;95509.66;4970434;28;20038;-65
2022/09/24 11:13:47;;;;;;;4.03;2.75;;;;;;;16.29;94.25;95511.78;4969044;28;20037;-65
2022/09/24 11:16:30;;;;;;;2.95;2.75;;;;;;;16.36;93.70;95508.41;4968236;28;20570;-65
2022/09/24 11:19:05;;;;;;;2.90;2.60;;;;;;;16.26;96.03;95508.66;4958763;28;20441;-64
2022/09/24 11:21:36;;;;;;;3.10;2.90;;;;;;;16.26;93.63;95509.50;4969666;28;20037;-63
2022/09/24 11:24:13;;;;;;;3.17;2.60;;;;;;;16.16;93.76;95503.63;4970183;28;20459;-65
2022/09/24 11:26:51;;;;;;;2.88;2.60;;;;;;;16.15;94.38;95501.97;4963986;28;20030;-65
2022/09/24 11:29:33;;;;;;;2.92;2.40;;;;;;;16.25;96.76;95502.53;4969513;28;20499;-64
2022/09/24 11:32:05;;;;;;;2.60;2.40;;;;;;;16.41;95.01;95498.88;4967474;28;20027;-60
2022/09/24 11:34:53;;;;;;;2.50;2.40;;;;;;;16.44;91.88;95492.34;4964938;28;20110;-60
2022/09/24 11:37:21;;;;;;;2.55;2.45;;;;;;;16.58;91.87;95501.34;4967950;28;20102;-59
2022/09/24 11:40:21;;;;;;;2.45;2.35;;;;;;;16.89;87.59;95498.44;4964701;28;20532;-60
2022/09/24 11:43:17;;;;;;;2.28;2.10;;;;;;;17.03;84.69;95493.31;4966250;28;20023;-59
2022/09/24 11:46:08;;;;;;;2.67;2.47;;;;;;;16.94;85.26;95500.56;4967744;28;20022;-66
2022/09/24 11:48:41;;;;;;;2.55;2.35;;;;;;;16.83;86.60;95493.06;4962150;28;20081;-64
2022/09/24 11:51:19;;;;;;;2.33;2.20;;;;;;;16.66;88.57;95487.94;4966666;28;20046;-60
2022/09/24 11:53:47;;;;;;;2.47;2.28;;;;;;;16.68;89.23;95487.75;4964329;28;20843;-59
2022/09/24 11:56:19;;;;;;;6.30;3.00;;;;;;;16.72;91.17;95473.91;4964673;28;20035;-60